This is the latest recevied weather packets stored in our database for station/object F5PHW-13. If no packets are shown the sender has not sent any weather packets the latest 1 day(s).
| Time | Temp. | Humidity | Pressure | Rain* | Wind** | Luminosity | Snow |
|---|---|---|---|---|---|---|---|
| 1778076677 | 15° C | 73% | 1010.3 hPa | 0 mm | - | - | - |
| 1778074278 | 15.56° C | 72% | 1010.4 hPa | 0 mm | - | - | - |
| 1778068277 | 15° C | 78% | 1010.5 hPa | 0 mm | - | - | - |
| 1778065878 | 13.89° C | 86% | 1010.6 hPa | 0 mm | - | - | - |
| 1778062277 | 12.78° C | 91% | 1010.6 hPa | 0 mm | - | - | - |
| 1778061080 | 12.22° C | 91% | 1010.5 hPa | 0 mm | - | - | - |
| 1778059876 | 12.22° C | 91% | 1010.3 hPa | 0 mm | - | - | - |
| 1778058679 | 11.67° C | 91% | 1010.3 hPa | 0 mm | - | - | - |
| 1778056280 | 11.11° C | 91% | 1010.3 hPa | 0 mm | - | - | - |
| 1778055076 | 11.11° C | 90% | 1010.2 hPa | 0 mm | - | - | - |
| 1778053880 | 10.56° C | 91% | 1010.2 hPa | 0 mm | - | - | - |
| 1778051479 | 10.56° C | 90% | 1010 hPa | 0 mm | - | - | - |
| 1778050279 | 10.56° C | 90% | 1009.8 hPa | 0 mm | - | - | - |
| 1778049076 | 10.56° C | 90% | 1009.7 hPa | 0 mm | - | - | - |
| 1778047876 | 10° C | 90% | 1009.6 hPa | 0 mm | - | - | - |
| 1778046676 | 10° C | 90% | 1009.6 hPa | 0 mm | - | - | - |
| 1778045478 | 10° C | 90% | 1009.4 hPa | 0 mm | - | - | - |
| 1778043078 | 10° C | 90% | 1009.4 hPa | 0 mm | - | - | - |
| 1778040682 | 10° C | 90% | 1009.5 hPa | 0 mm | - | - | - |
| 1778035880 | 10° C | 90% | 1009.7 hPa | 0 mm | - | - | - |
| 1778032281 | 10° C | 90% | 1009.8 hPa | 0 mm | - | - | - |
| 1778031081 | 10° C | 89% | 1009.8 hPa | 0 mm | - | - | - |
| 1778029881 | 10° C | 89% | 1009.9 hPa | 0 mm | - | - | - |
| 1778028680 | 10° C | 89% | 1010 hPa | 0 mm | - | - | - |
| 1778027481 | 10° C | 89% | 1010.1 hPa | 0 mm | - | - | - |
* Rain latest hour (hover to see other rain measurements)
** Current wind speed in m/s (hover to see current wind gust speed)